Time;durP1;ratioP1;P1;durP2;ratioP2;P2;SDS_P1;SDS_P2;PMS_P1;PMS_P2;Temp;Humidity;BMP_temperature;BMP_pressure;BME280_temperature;BME280_humidity;BME280_pressure;Samples;Min_cycle;Max_cycle;Signal;HPM_P1;HPM_P2
2022/01/31 00:00:18;;;;;;;17.90;2.40;;;;;;;2.85;60.87;100026.92;106612;1268;24317;-77
2022/01/31 00:03:06;;;;;;;19.00;1.70;;;;;;;2.80;60.89;100024.77;106766;1267;24811;-75
2022/01/31 00:05:35;;;;;;;19.00;2.20;;;;;;;2.76;60.94;100025.48;106848;1267;25280;-77
2022/01/31 00:08:05;;;;;;;21.60;1.90;;;;;;;2.72;61.09;100028.11;106827;1268;22537;-77
2022/01/31 00:10:33;;;;;;;17.70;1.90;;;;;;;2.67;61.11;100021.30;106722;1268;22621;-77
2022/01/31 00:13:05;;;;;;;27.90;3.00;;;;;;;2.62;61.14;100019.67;106742;1268;22554;-77
2022/01/31 00:15:39;;;;;;;18.30;3.00;;;;;;;2.60;61.28;100015.64;106946;1268;24418;-75
2022/01/31 00:18:07;;;;;;;24.60;2.70;;;;;;;2.58;61.21;100011.29;106860;1268;22538;-77
2022/01/31 00:20:36;;;;;;;20.50;1.90;;;;;;;2.55;61.31;100018.91;106692;1267;22528;-76
2022/01/31 00:23:05;;;;;;;19.90;1.60;;;;;;;2.52;61.27;100013.23;106842;1267;25477;-77
2022/01/31 00:25:33;;;;;;;24.40;2.10;;;;;;;2.49;61.35;100015.11;106807;1267;26573;-77
2022/01/31 00:28:02;;;;;;;17.80;1.80;;;;;;;2.44;61.41;100013.73;106764;1267;22562;-76
2022/01/31 00:30:33;;;;;;;21.10;1.90;;;;;;;2.40;61.40;100004.64;106712;1267;25367;-76
2022/01/31 00:33:01;;;;;;;21.50;2.10;;;;;;;2.35;61.44;100007.63;106663;1267;22540;-77
2022/01/31 00:35:29;;;;;;;17.80;1.70;;;;;;;2.33;61.47;100011.64;106577;1267;22578;-76
2022/01/31 00:37:58;;;;;;;12.70;1.70;;;;;;;2.30;61.54;100009.19;106691;1267;22534;-77
2022/01/31 00:40:26;;;;;;;21.70;2.60;;;;;;;2.27;61.58;100010.59;106815;1265;24311;-76
2022/01/31 00:42:54;;;;;;;20.40;2.40;;;;;;;2.24;61.72;100001.54;106685;1268;24321;-76
2022/01/31 00:45:26;;;;;;;16.60;1.40;;;;;;;2.20;61.70;99992.82;106776;1267;22543;-75
2022/01/31 00:48:04;;;;;;;20.50;2.10;;;;;;;2.17;61.71;99976.73;106829;1267;23754;-75
2022/01/31 00:50:38;;;;;;;17.40;1.40;;;;;;;2.17;61.67;99966.52;106627;1267;22551;-76
2022/01/31 00:53:08;;;;;;;19.70;2.40;;;;;;;2.15;61.71;99959.65;106751;1268;25332;-77
2022/01/31 00:55:36;;;;;;;20.00;1.40;;;;;;;2.12;61.82;99963.02;106833;1267;22553;-76
2022/01/31 00:58:05;;;;;;;19.10;1.90;;;;;;;2.10;61.79;99963.54;106658;1268;24246;-75
2022/01/31 01:00:34;;;;;;;23.70;1.90;;;;;;;2.07;61.82;99955.50;106768;1268;22721;-75
2022/01/31 01:03:02;;;;;;;24.10;2.30;;;;;;;2.04;61.81;99957.22;106841;1268;25604;-76
2022/01/31 01:05:30;;;;;;;18.90;2.60;;;;;;;2.02;61.68;99947.52;106757;1265;22549;-76
2022/01/31 01:08:03;;;;;;;19.60;1.60;;;;;;;2.02;61.68;99951.30;106602;1264;22572;-75
2022/01/31 01:10:32;;;;;;;18.40;1.60;;;;;;;2.03;61.74;99956.02;106673;1268;22700;-76
2022/01/31 01:13:01;;;;;;;32.70;2.90;;;;;;;2.01;61.71;99953.52;106878;1268;22550;-75
2022/01/31 01:15:30;;;;;;;20.90;2.10;;;;;;;1.99;61.74;99950.57;106778;1267;25258;-76
2022/01/31 01:17:58;;;;;;;19.00;1.70;;;;;;;1.98;61.73;99940.69;106826;1265;22550;-75
2022/01/31 01:20:27;;;;;;;12.70;1.70;;;;;;;1.95;61.74;99942.09;106681;1268;22997;-75
2022/01/31 01:22:55;;;;;;;21.50;2.60;;;;;;;1.92;61.85;99944.54;106703;1268;24322;-76
2022/01/31 01:25:23;;;;;;;14.30;1.70;;;;;;;1.89;61.79;99940.27;106839;1268;25422;-75
2022/01/31 01:27:54;;;;;;;18.00;1.70;;;;;;;1.86;61.95;99936.32;106688;1267;25336;-76
2022/01/31 01:30:22;;;;;;;16.80;1.60;;;;;;;1.84;61.94;99929.84;106851;1267;25273;-76
2022/01/31 01:33:01;;;;;;;14.40;1.80;;;;;;;1.82;62.03;99929.66;106785;1265;22577;-76
2022/01/31 01:35:33;;;;;;;23.70;2.70;;;;;;;1.81;62.25;99933.92;106836;1265;24370;-76
2022/01/31 01:38:06;;;;;;;20.90;1.90;;;;;;;1.80;62.39;99930.63;106589;1265;22548;-77
2022/01/31 01:40:35;;;;;;;17.70;2.10;;;;;;;1.82;62.46;99931.94;106662;1267;24259;-76
2022/01/31 01:43:04;;;;;;;16.20;1.90;;;;;;;1.84;62.63;99926.61;106621;1267;22525;-76
2022/01/31 01:45:32;;;;;;;16.40;1.30;;;;;;;1.85;62.69;99920.46;106805;1268;26558;-76
2022/01/31 01:48:01;;;;;;;15.50;2.00;;;;;;;1.86;62.70;99916.60;106781;1267;23975;-75
2022/01/31 01:50:29;;;;;;;18.30;1.80;;;;;;;1.87;62.81;99915.91;106755;1267;25636;-75
2022/01/31 01:52:58;;;;;;;18.80;2.00;;;;;;;1.89;62.80;99905.83;106711;1267;24318;-76
2022/01/31 01:55:27;;;;;;;22.40;2.80;;;;;;;1.90;63.00;99902.41;106587;1268;22917;-75
2022/01/31 01:57:56;;;;;;;14.20;1.60;;;;;;;1.90;63.08;99902.34;106891;1267;25312;-75
2022/01/31 02:00:26;;;;;;;14.90;1.30;;;;;;;1.91;63.15;99903.64;106711;1268;22550;-76
2022/01/31 02:02:55;;;;;;;19.80;1.70;;;;;;;1.92;63.31;99899.07;106520;1267;24275;-76
2022/01/31 02:05:24;;;;;;;18.60;1.60;;;;;;;1.91;63.47;99898.68;106635;1267;22602;-75
2022/01/31 02:07:52;;;;;;;15.20;1.50;;;;;;;1.93;63.54;99898.72;106776;1268;24224;-76
2022/01/31 02:10:20;;;;;;;21.60;2.00;;;;;;;1.96;63.56;99899.05;106584;1267;25413;-76
2022/01/31 02:12:49;;;;;;;18.50;2.70;;;;;;;1.98;63.64;99895.85;106634;1267;22540;-76
2022/01/31 02:15:18;;;;;;;21.40;2.50;;;;;;;2.00;63.63;99891.40;106725;1268;23336;-76
2022/01/31 02:17:46;;;;;;;19.60;1.50;;;;;;;2.00;63.61;99888.24;106674;1268;22540;-76
2022/01/31 02:20:14;;;;;;;19.70;1.80;;;;;;;2.01;63.63;99889.88;106703;1268;26420;-77
2022/01/31 02:22:42;;;;;;;16.00;1.80;;;;;;;2.02;63.71;99879.23;106635;1267;25465;-75
2022/01/31 02:25:12;;;;;;;24.00;2.70;;;;;;;2.03;63.92;99873.80;106754;1268;22547;-77
2022/01/31 02:27:41;;;;;;;17.60;1.90;;;;;;;2.03;64.07;99870.87;106758;1267;22710;-75
2022/01/31 02:30:12;;;;;;;24.90;3.50;;;;;;;2.05;64.21;99870.20;106638;1268;22556;-76
2022/01/31 02:32:40;;;;;;;29.00;2.40;;;;;;;2.07;64.35;99865.10;106963;1266;22661;-77
2022/01/31 02:35:11;;;;;;;29.30;4.10;;;;;;;2.11;64.41;99860.42;106667;1268;22571;-76
2022/01/31 02:37:38;;;;;;;;;;;;;;;2.13;64.42;99860.63;106831;1267;23374;-76
2022/01/31 02:40:10;;;;;;;24.30;2.30;;;;;;;2.15;64.48;99854.85;106834;1267;22540;-75
2022/01/31 02:42:39;;;;;;;21.40;1.60;;;;;;;2.17;64.63;99853.28;106818;1268;25498;-75
2022/01/31 02:45:09;;;;;;;22.40;2.00;;;;;;;2.19;64.59;99847.88;106717;1267;26717;-75
2022/01/31 02:47:41;;;;;;;15.40;1.20;;;;;;;2.22;64.68;99839.34;106903;1267;22538;-77
2022/01/31 02:50:13;;;;;;;20.80;2.10;;;;;;;2.23;64.70;99835.60;106776;1268;22553;-76
2022/01/31 02:52:46;;;;;;;16.00;2.40;;;;;;;2.24;64.72;99830.69;106593;1267;22551;-76
2022/01/31 02:55:16;;;;;;;16.20;2.20;;;;;;;2.25;64.63;99817.68;106727;1268;22623;-76
2022/01/31 02:57:44;;;;;;;19.10;1.90;;;;;;;2.27;64.64;99813.94;106724;1266;24281;-75
2022/01/31 03:00:14;;;;;;;23.30;2.50;;;;;;;2.27;64.68;99804.49;106760;1267;24206;-76
2022/01/31 03:02:42;;;;;;;17.20;1.80;;;;;;;2.27;64.77;99798.20;106723;1267;25672;-76
2022/01/31 03:05:11;;;;;;;17.70;2.50;;;;;;;2.27;64.69;99799.05;106810;1267;25337;-77
2022/01/31 03:07:39;;;;;;;19.50;2.30;;;;;;;2.26;64.78;99797.45;106942;1267;22546;-75
2022/01/31 03:10:09;;;;;;;22.40;2.30;;;;;;;2.24;64.79;99792.67;106741;1267;22556;-76
2022/01/31 03:12:37;;;;;;;22.50;2.00;;;;;;;2.22;64.89;99791.24;106711;1268;22538;-75
2022/01/31 03:15:06;;;;;;;27.50;3.10;;;;;;;2.20;64.97;99788.30;106779;1267;22556;-76
2022/01/31 03:17:37;;;;;;;16.90;1.90;;;;;;;2.19;65.03;99780.94;106632;1267;23065;-76
2022/01/31 03:20:08;;;;;;;27.20;2.00;;;;;;;2.17;65.18;99771.23;106754;1267;23051;-76
2022/01/31 03:22:36;;;;;;;15.60;1.40;;;;;;;2.15;65.28;99763.97;106618;1268;22525;-76
2022/01/31 03:25:05;;;;;;;19.10;1.80;;;;;;;2.14;65.43;99756.27;106569;1268;25414;-76
2022/01/31 03:27:34;;;;;;;17.10;2.00;;;;;;;2.13;65.50;99760.55;106653;1267;24483;-76
2022/01/31 03:30:03;;;;;;;21.00;2.60;;;;;;;2.13;65.62;99756.77;106734;1267;23090;-76
2022/01/31 03:32:31;;;;;;;15.40;1.40;;;;;;;2.12;65.65;99756.10;106674;1267;22562;-75
2022/01/31 03:35:01;;;;;;;17.90;1.90;;;;;;;2.13;65.76;99753.02;106695;1267;24606;-77
2022/01/31 03:37:29;;;;;;;22.80;2.70;;;;;;;2.12;65.93;99741.63;106650;1268;22684;-76
2022/01/31 03:39:57;;;;;;;19.80;2.00;;;;;;;2.13;65.97;99739.95;106834;1267;23937;-76
2022/01/31 03:42:26;;;;;;;15.90;2.00;;;;;;;2.12;66.07;99736.36;106796;1267;26498;-76
2022/01/31 03:44:54;;;;;;;22.00;3.30;;;;;;;2.12;66.08;99737.67;106590;1267;25263;-76
2022/01/31 03:47:23;;;;;;;25.60;2.10;;;;;;;2.13;66.21;99735.86;106790;1267;22631;-76
2022/01/31 03:49:53;;;;;;;13.60;1.50;;;;;;;2.13;66.32;99732.33;106559;1267;22672;-76
2022/01/31 03:52:21;;;;;;;17.10;1.50;;;;;;;2.14;66.31;99723.97;106680;1267;22693;-77
2022/01/31 03:54:50;;;;;;;17.40;2.50;;;;;;;2.15;66.28;99726.77;106804;1268;22534;-75
2022/01/31 03:57:18;;;;;;;27.70;3.50;;;;;;;2.14;66.45;99723.64;106590;1267;22544;-76
2022/01/31 03:59:46;;;;;;;21.20;1.80;;;;;;;2.14;66.61;99724.64;106557;1267;26785;-76
2022/01/31 04:02:15;;;;;;;26.10;2.10;;;;;;;2.14;66.56;99721.27;106674;1267;22531;-76
2022/01/31 04:04:43;;;;;;;15.40;2.70;;;;;;;2.14;66.65;99712.62;106785;1267;24475;-75
2022/01/31 04:07:11;;;;;;;22.80;1.70;;;;;;;2.14;66.78;99708.30;106719;1267;22567;-77
2022/01/31 04:09:39;;;;;;;26.50;2.90;;;;;;;2.13;66.93;99706.98;106722;1267;24291;-75
2022/01/31 04:12:10;;;;;;;23.80;2.20;;;;;;;2.14;66.92;99704.84;106789;1267;24268;-75
2022/01/31 04:14:38;;;;;;;29.50;3.30;;;;;;;2.14;66.96;99700.90;106893;1267;22700;-76
2022/01/31 04:17:09;;;;;;;16.10;1.50;;;;;;;2.15;66.94;99699.23;106849;1267;24294;-78
2022/01/31 04:19:37;;;;;;;;;;;;;;;2.15;67.14;99694.58;106955;1268;22596;-76
2022/01/31 04:22:08;;;;;;;26.30;2.60;;;;;;;2.15;67.13;99690.63;106970;1268;22544;-75
2022/01/31 04:24:35;;;;;;;;;;;;;;;2.16;67.32;99681.48;106710;1268;22531;-76
2022/01/31 04:27:05;;;;;;;29.30;2.20;;;;;;;2.16;67.35;99678.04;106647;1267;23369;-78
2022/01/31 04:29:37;;;;;;;14.80;1.90;;;;;;;2.17;67.43;99667.23;106782;1267;22536;-76
2022/01/31 04:32:07;;;;;;;20.20;1.80;;;;;;;2.17;67.44;99662.64;106823;1266;23144;-75
2022/01/31 04:34:36;;;;;;;17.80;2.00;;;;;;;2.18;67.57;99659.16;106570;1268;22617;-76
2022/01/31 04:37:04;;;;;;;18.60;1.60;;;;;;;2.18;67.62;99656.27;106597;1268;22550;-76
2022/01/31 04:39:33;;;;;;;19.10;2.40;;;;;;;2.18;67.80;99646.04;106603;1267;22685;-76
2022/01/31 04:42:03;;;;;;;18.10;2.40;;;;;;;2.18;67.71;99641.23;106702;1268;24359;-76
2022/01/31 04:44:31;;;;;;;19.80;1.90;;;;;;;2.17;67.80;99638.10;106715;1267;22776;-76
2022/01/31 04:46:59;;;;;;;21.80;1.80;;;;;;;2.17;67.97;99639.05;106581;1267;22688;-77
2022/01/31 04:49:27;;;;;;;17.70;1.70;;;;;;;2.17;68.04;99634.80;106652;1266;22542;-75
2022/01/31 04:51:55;;;;;;;19.20;2.50;;;;;;;2.18;68.03;99634.31;106724;1267;22841;-75
2022/01/31 04:54:24;;;;;;;28.10;4.50;;;;;;;2.18;67.91;99624.79;106710;1267;24366;-78
2022/01/31 04:56:53;;;;;;;20.20;1.90;;;;;;;2.18;67.92;99619.44;106770;1265;23181;-76
2022/01/31 04:59:21;;;;;;;21.00;1.60;;;;;;;2.19;68.10;99618.39;106745;1268;25438;-76
2022/01/31 05:01:50;;;;;;;22.40;2.70;;;;;;;2.19;68.00;99612.98;106799;1267;25299;-75
2022/01/31 05:04:18;;;;;;;27.40;2.80;;;;;;;2.19;67.99;99606.98;106636;1268;25461;-76
2022/01/31 05:06:48;;;;;;;18.90;2.30;;;;;;;2.19;68.08;99613.59;106574;1268;24166;-76
2022/01/31 05:09:16;;;;;;;21.40;1.80;;;;;;;2.18;68.10;99614.46;106916;1267;22543;-75
2022/01/31 05:11:45;;;;;;;24.50;2.40;;;;;;;2.18;68.23;99615.17;106722;1266;22861;-75
2022/01/31 05:14:16;;;;;;;18.70;2.00;;;;;;;2.18;68.27;99615.58;106637;1268;24256;-76
2022/01/31 05:16:44;;;;;;;19.50;2.30;;;;;;;2.18;68.28;99609.14;106703;1268;22573;-76
2022/01/31 05:19:12;;;;;;;19.30;2.20;;;;;;;2.17;68.32;99606.86;106764;1268;22590;-75
2022/01/31 05:21:40;;;;;;;29.50;3.50;;;;;;;2.16;68.34;99607.38;106563;1265;22551;-76
2022/01/31 05:24:10;;;;;;;23.90;2.30;;;;;;;2.16;68.44;99603.27;106809;1268;23934;-76
2022/01/31 05:26:38;;;;;;;18.50;1.40;;;;;;;2.17;68.38;99596.27;106762;1267;22699;-76
2022/01/31 05:29:06;;;;;;;25.90;2.50;;;;;;;2.17;68.35;99592.58;106698;1267;25331;-76
2022/01/31 05:31:34;;;;;;;24.20;2.00;;;;;;;2.16;68.35;99588.40;106651;1267;22695;-76
2022/01/31 05:34:03;;;;;;;27.90;3.30;;;;;;;2.16;68.35;99581.65;106739;1267;22568;-76
2022/01/31 05:36:31;;;;;;;16.40;1.90;;;;;;;2.17;68.35;99578.32;106777;1266;22574;-76
2022/01/31 05:38:59;;;;;;;24.60;2.90;;;;;;;2.17;68.44;99569.90;106703;1267;22547;-77
2022/01/31 05:41:28;;;;;;;26.10;3.50;;;;;;;2.16;68.38;99560.31;106939;1268;23121;-76
2022/01/31 05:43:56;;;;;;;31.80;2.70;;;;;;;2.17;68.44;99562.73;106537;1268;24588;-77
2022/01/31 05:46:24;;;;;;;21.70;1.80;;;;;;;2.16;68.40;99556.32;106651;1268;22573;-76
2022/01/31 05:48:53;;;;;;;23.80;2.90;;;;;;;2.16;68.45;99543.34;106682;1268;22690;-75
2022/01/31 05:51:23;;;;;;;21.90;2.00;;;;;;;2.16;68.44;99534.92;106860;1267;22684;-75
2022/01/31 05:53:52;;;;;;;23.00;2.70;;;;;;;2.16;68.35;99537.98;106565;1267;25371;-74
2022/01/31 05:56:20;;;;;;;21.40;3.00;;;;;;;2.17;68.38;99534.20;106574;1268;25364;-75
2022/01/31 05:58:49;;;;;;;21.80;2.20;;;;;;;2.16;68.36;99532.10;106725;1267;22560;-74
2022/01/31 06:01:18;;;;;;;26.60;2.30;;;;;;;2.16;68.28;99528.39;106992;1265;22668;-75
2022/01/31 06:03:46;;;;;;;20.90;2.40;;;;;;;2.16;68.27;99522.56;106794;1267;22557;-76
2022/01/31 06:06:15;;;;;;;25.60;2.80;;;;;;;2.16;68.29;99528.23;106747;1267;22531;-76
2022/01/31 06:08:43;;;;;;;20.70;2.80;;;;;;;2.16;68.38;99519.11;106636;1267;22534;-76
2022/01/31 06:11:12;;;;;;;34.40;2.90;;;;;;;2.16;68.29;99516.28;106705;1266;22549;-76
2022/01/31 06:13:44;;;;;;;16.50;2.50;;;;;;;2.16;68.17;99507.78;106657;1268;22607;-75
2022/01/31 06:16:13;;;;;;;25.40;2.40;;;;;;;2.15;68.21;99504.25;106833;1266;25619;-76
2022/01/31 06:18:41;;;;;;;21.50;3.00;;;;;;;2.15;68.24;99505.45;106802;1265;22537;-76
2022/01/31 06:21:11;;;;;;;21.30;1.70;;;;;;;2.15;68.22;99505.14;106684;1267;25568;-76
2022/01/31 06:23:39;;;;;;;22.00;2.80;;;;;;;2.14;68.17;99502.01;106850;1268;22570;-77
2022/01/31 06:26:09;;;;;;;25.20;3.50;;;;;;;2.15;68.08;99495.72;106791;1267;22557;-78
2022/01/31 06:28:37;;;;;;;24.80;2.40;;;;;;;2.16;68.10;99492.14;107044;1267;25421;-77
2022/01/31 06:31:05;;;;;;;21.30;2.00;;;;;;;2.16;68.15;99491.18;107008;1268;25528;-78
2022/01/31 06:33:33;;;;;;;27.20;3.80;;;;;;;2.16;68.10;99490.47;106940;1268;22710;-78
2022/01/31 06:36:01;;;;;;;27.50;2.60;;;;;;;2.16;68.15;99484.40;106847;1268;24246;-77
2022/01/31 06:38:32;;;;;;;19.40;2.40;;;;;;;2.16;68.06;99480.07;106768;1268;22544;-77
2022/01/31 06:41:00;;;;;;;27.10;3.60;;;;;;;2.17;67.99;99475.64;106529;1267;22702;-78
2022/01/31 06:43:28;;;;;;;28.50;3.30;;;;;;;2.17;68.15;99466.22;106729;1267;24377;-75
2022/01/31 06:45:56;;;;;;;25.70;3.30;;;;;;;2.18;68.20;99455.09;106568;1267;25331;-75
2022/01/31 06:48:25;;;;;;;32.40;4.50;;;;;;;2.18;68.06;99450.90;106530;1268;25404;-77
2022/01/31 06:50:53;;;;;;;39.30;6.10;;;;;;;2.19;68.17;99450.88;106794;1267;25353;-74
2022/01/31 06:53:27;;;;;;;29.10;2.80;;;;;;;2.19;68.09;99453.54;106519;1267;22541;-74
2022/01/31 06:55:57;;;;;;;31.20;3.80;;;;;;;2.19;68.05;99450.88;106531;1267;25330;-74
2022/01/31 06:58:28;;;;;;;26.60;3.30;;;;;;;2.19;68.04;99439.92;106479;1268;22541;-75
2022/01/31 07:00:58;;;;;;;24.80;3.10;;;;;;;2.18;68.08;99438.23;106488;1267;24399;-75
2022/01/31 07:03:26;;;;;;;23.80;3.40;;;;;;;2.18;68.12;99439.04;106538;1267;24318;-75
2022/01/31 07:05:54;;;;;;;23.80;2.40;;;;;;;2.18;68.04;99437.38;106481;1268;22698;-75
2022/01/31 07:08:22;;;;;;;19.30;2.60;;;;;;;2.18;67.99;99431.95;106514;1268;25415;-74
2022/01/31 07:10:52;;;;;;;23.10;3.30;;;;;;;2.18;68.10;99427.46;106527;1268;24236;-75
2022/01/31 07:13:38;;;;;;;20.00;3.30;;;;;;;2.18;68.10;99419.12;106631;1267;22575;-75
2022/01/31 07:16:07;;;;;;;18.90;3.40;;;;;;;2.19;68.10;99418.63;106507;1268;22531;-75
2022/01/31 07:18:36;;;;;;;28.50;2.80;;;;;;;2.19;68.19;99415.39;106521;1267;23521;-75
2022/01/31 07:21:05;;;;;;;21.60;2.60;;;;;;;2.20;68.24;99410.65;106506;1267;22474;-75
2022/01/31 07:24:02;;;;;;;31.30;3.10;;;;;;;2.20;68.27;99410.56;106488;1268;24439;-77
2022/01/31 07:26:31;;;;;;;22.10;2.30;;;;;;;2.20;68.13;99411.66;106543;1267;23142;-75
2022/01/31 07:29:00;;;;;;;21.30;2.70;;;;;;;2.20;68.27;99420.64;106504;1267;22544;-76
2022/01/31 07:31:28;;;;;;;30.50;5.30;;;;;;;2.21;68.14;99425.73;106485;1267;24405;-75
2022/01/31 07:33:56;;;;;;;19.90;1.90;;;;;;;2.21;68.19;99428.09;106472;1268;26678;-75
2022/01/31 07:36:25;;;;;;;23.10;3.70;;;;;;;2.20;68.14;99424.80;106564;1267;24221;-75
2022/01/31 07:38:53;;;;;;;22.70;2.80;;;;;;;2.20;68.21;99419.77;106527;1267;24327;-75
2022/01/31 07:41:21;;;;;;;20.50;2.60;;;;;;;2.21;68.20;99415.44;106477;1267;22703;-75
2022/01/31 07:43:49;;;;;;;24.70;2.00;;;;;;;2.21;68.18;99412.83;106396;1267;24783;-74
2022/01/31 07:46:18;;;;;;;19.90;2.00;;;;;;;2.21;68.16;99409.91;106458;1267;22531;-76
2022/01/31 07:48:48;;;;;;;24.30;3.10;;;;;;;2.21;68.08;99402.60;106467;1268;22580;-76
2022/01/31 07:51:17;;;;;;;30.20;2.30;;;;;;;2.21;68.12;99398.91;106471;1267;25473;-76
2022/01/31 07:53:46;;;;;;;22.90;4.10;;;;;;;2.22;68.11;99395.41;106465;1267;24318;-75
2022/01/31 07:56:16;;;;;;;25.70;3.30;;;;;;;2.22;68.09;99388.23;106392;1267;25360;-75
2022/01/31 07:58:44;;;;;;;23.50;2.10;;;;;;;2.23;68.09;99387.02;106614;1268;22534;-75
2022/01/31 08:01:12;;;;;;;22.60;2.20;;;;;;;2.25;68.03;99383.36;106535;1267;24365;-75
2022/01/31 08:03:41;;;;;;;27.60;3.90;;;;;;;2.26;68.02;99374.58;106497;1268;25451;-75
2022/01/31 08:06:09;;;;;;;27.70;2.30;;;;;;;2.26;67.85;99363.86;106460;1267;22549;-74
2022/01/31 08:08:37;;;;;;;24.30;2.90;;;;;;;2.28;67.94;99357.66;106443;1268;22583;-75
2022/01/31 08:11:05;;;;;;;28.70;2.70;;;;;;;2.29;67.96;99349.75;106422;1268;22570;-76
2022/01/31 08:13:35;;;;;;;33.50;3.60;;;;;;;2.32;67.96;99349.59;106470;1267;22712;-74
2022/01/31 08:16:14;;;;;;;21.30;2.70;;;;;;;2.34;68.03;99346.61;106618;1267;22583;-74
2022/01/31 08:18:46;;;;;;;29.60;2.80;;;;;;;2.37;67.93;99343.04;106440;1267;22544;-74
2022/01/31 08:21:16;;;;;;;27.50;3.80;;;;;;;2.39;67.88;99341.64;106563;1267;22592;-75
2022/01/31 08:23:44;;;;;;;27.90;2.80;;;;;;;2.41;67.96;99336.52;106596;1267;22578;-75
2022/01/31 08:26:16;;;;;;;19.40;3.20;;;;;;;2.44;67.94;99328.48;106498;1268;24357;-74
2022/01/31 08:28:50;;;;;;;29.70;4.30;;;;;;;2.47;67.90;99322.17;106576;1268;22661;-74
2022/01/31 08:31:23;;;;;;;33.30;3.50;;;;;;;2.49;68.04;99316.80;106517;1267;22537;-74
2022/01/31 08:34:05;;;;;;;24.40;4.20;;;;;;;2.52;67.98;99314.84;106514;1268;26429;-75
2022/01/31 08:36:34;;;;;;;29.20;3.50;;;;;;;2.52;67.85;99303.98;106515;1268;23413;-76
2022/01/31 08:39:08;;;;;;;22.00;3.90;;;;;;;2.53;67.80;99299.92;106508;1267;25486;-75
2022/01/31 08:41:37;;;;;;;25.30;4.00;;;;;;;2.53;67.80;99300.95;106741;1267;24287;-76
2022/01/31 08:44:06;;;;;;;29.90;4.70;;;;;;;2.54;67.86;99294.14;106551;1268;22534;-75
2022/01/31 08:46:39;;;;;;;27.20;3.90;;;;;;;2.55;67.81;99289.70;106559;1268;22556;-74
2022/01/31 08:49:08;;;;;;;24.40;3.50;;;;;;;2.57;67.99;99286.31;106554;1267;22601;-74
2022/01/31 08:51:37;;;;;;;28.90;3.90;;;;;;;2.59;67.96;99279.23;106492;1267;22558;-74
2022/01/31 08:54:06;;;;;;;33.60;4.20;;;;;;;2.63;68.09;99277.77;106584;1267;22550;-76
2022/01/31 08:56:40;;;;;;;34.40;4.70;;;;;;;2.66;68.11;99270.30;106523;1267;24274;-74
2022/01/31 08:59:12;;;;;;;43.00;4.10;;;;;;;2.69;68.07;99271.93;106490;1268;24329;-75
2022/01/31 09:01:43;;;;;;;24.40;3.90;;;;;;;2.71;67.93;99269.17;106560;1267;22732;-74
2022/01/31 09:04:19;;;;;;;33.30;5.10;;;;;;;2.75;67.99;99261.24;106506;1268;24202;-74
2022/01/31 09:06:48;;;;;;;26.00;3.70;;;;;;;2.79;68.01;99258.02;106599;1267;22547;-74
2022/01/31 09:09:17;;;;;;;37.50;5.40;;;;;;;2.82;67.59;99255.09;106435;1268;22553;-74
2022/01/31 09:11:46;;;;;;;35.70;5.80;;;;;;;2.85;67.51;99256.15;106637;1267;24412;-75
2022/01/31 09:14:14;;;;;;;31.60;3.50;;;;;;;2.87;67.35;99250.88;106456;1267;25327;-74
2022/01/31 09:16:43;;;;;;;23.50;2.90;;;;;;;2.90;67.32;99246.02;106496;1268;22555;-75
2022/01/31 09:19:11;;;;;;;23.30;4.00;;;;;;;2.93;67.33;99247.41;106538;1267;24278;-75
2022/01/31 09:21:40;;;;;;;29.30;3.30;;;;;;;2.95;67.41;99251.02;106465;1268;22550;-75
2022/01/31 09:24:09;;;;;;;26.00;3.00;;;;;;;2.98;67.29;99256.11;106511;1267;22677;-76
2022/01/31 09:26:37;;;;;;;29.80;4.20;;;;;;;3.00;67.24;99253.31;106591;1268;26541;-75
2022/01/31 09:29:05;;;;;;;24.30;3.70;;;;;;;3.03;67.38;99254.05;106495;1268;25605;-74
2022/01/31 09:31:33;;;;;;;38.20;5.40;;;;;;;3.03;67.34;99251.13;106335;1267;220906;-75
2022/01/31 09:34:01;;;;;;;26.90;3.90;;;;;;;3.03;67.05;99245.55;106462;1268;25362;-75
2022/01/31 09:36:29;;;;;;;21.10;3.60;;;;;;;3.02;66.92;99241.48;106447;1268;22681;-76
2022/01/31 09:38:57;;;;;;;33.70;5.30;;;;;;;3.01;66.96;99236.48;106510;1267;22531;-76
2022/01/31 09:41:28;;;;;;;32.10;4.50;;;;;;;3.02;66.96;99236.98;106471;1267;22681;-76
2022/01/31 09:44:08;;;;;;;29.70;4.60;;;;;;;3.05;66.80;99233.42;106478;1268;25403;-74
2022/01/31 09:46:52;;;;;;;24.80;2.80;;;;;;;3.05;66.75;99233.64;106512;1268;24291;-74
2022/01/31 09:49:23;;;;;;;25.50;4.00;;;;;;;3.05;66.60;99229.92;106423;1267;22684;-76
2022/01/31 09:51:51;;;;;;;26.50;4.30;;;;;;;3.06;66.70;99227.55;106533;1268;22872;-75
2022/01/31 09:54:20;;;;;;;29.80;4.80;;;;;;;3.07;66.83;99225.12;106568;1268;22536;-74
2022/01/31 09:56:49;;;;;;;32.30;5.00;;;;;;;3.09;66.88;99226.95;106538;1268;22531;-76
2022/01/31 09:59:17;;;;;;;28.10;4.10;;;;;;;3.11;66.96;99225.95;106486;1268;25329;-75
2022/01/31 10:01:49;;;;;;;37.10;5.60;;;;;;;3.13;66.99;99221.50;106495;1268;25081;-76
2022/01/31 10:04:19;;;;;;;36.60;5.30;;;;;;;3.13;66.78;99216.08;106550;1268;22545;-76
2022/01/31 10:06:49;;;;;;;27.10;3.90;;;;;;;3.12;66.92;99208.05;106487;1268;22706;-75
2022/01/31 10:09:20;;;;;;;33.80;5.60;;;;;;;3.13;67.00;99206.21;106561;1267;25535;-75
2022/01/31 10:11:51;;;;;;;25.90;4.60;;;;;;;3.14;66.94;99196.73;106445;1267;22547;-74
2022/01/31 10:17:25;;;;;;;35.40;4.70;;;;;;;3.15;66.91;99185.48;106582;1267;22619;-74
2022/01/31 10:20:00;;;;;;;23.60;4.20;;;;;;;3.15;66.78;99181.65;106427;1268;24389;-75
2022/01/31 10:22:30;;;;;;;28.90;5.30;;;;;;;3.15;66.94;99180.45;106506;1268;24250;-75
2022/01/31 10:25:02;;;;;;;34.90;6.50;;;;;;;3.17;67.10;99180.77;106510;1267;22541;-76
2022/01/31 10:27:34;;;;;;;33.10;5.40;;;;;;;3.20;66.94;99174.89;106684;1268;24354;-74
2022/01/31 10:30:10;;;;;;;40.30;7.10;;;;;;;3.23;66.81;99167.30;106863;1267;25411;-74
2022/01/31 10:32:41;;;;;;;28.20;6.30;;;;;;;3.25;66.80;99157.84;106744;1267;22620;-75
2022/01/31 10:35:14;;;;;;;34.00;5.90;;;;;;;3.27;66.80;99148.67;106655;1268;22535;-75
2022/01/31 10:37:43;;;;;;;31.90;3.60;;;;;;;3.29;66.62;99142.69;106763;1267;26585;-74
2022/01/31 10:43:37;;;;;;;26.90;5.00;;;;;;;3.33;66.25;99131.20;106421;1268;25087;-74
2022/01/31 10:46:09;;;;;;;23.70;4.30;;;;;;;3.34;66.38;99125.33;106475;1268;24246;-74
2022/01/31 10:54:37;;;;;;;19.30;3.40;;;;;;;3.38;66.30;99114.11;106168;1270;22595;-74
2022/01/31 10:57:13;;;;;;;25.30;4.00;;;;;;;3.39;66.12;99111.02;106320;1271;22567;-74
2022/01/31 10:59:44;;;;;;;27.90;4.80;;;;;;;3.40;66.01;99108.89;106166;1270;22563;-75
2022/01/31 11:02:18;;;;;;;29.50;5.20;;;;;;;3.40;65.90;99103.23;106226;1271;26715;-75
2022/01/31 11:04:48;;;;;;;27.50;4.10;;;;;;;3.39;65.63;99103.53;106051;1270;22550;-76
2022/01/31 11:07:18;;;;;;;30.60;3.90;;;;;;;3.38;65.71;99096.79;106195;1271;24332;-75
2022/01/31 11:09:49;;;;;;;27.70;4.30;;;;;;;3.40;65.79;99100.96;106094;1270;22639;-74
2022/01/31 11:12:22;;;;;;;29.00;5.00;;;;;;;3.42;65.78;99097.77;106238;1270;22654;-74
2022/01/31 11:14:53;;;;;;;26.90;4.30;;;;;;;3.45;65.69;99093.55;106201;1270;25319;-74
2022/01/31 11:17:24;;;;;;;28.70;5.70;;;;;;;3.48;65.39;99093.44;106068;1271;22632;-74
2022/01/31 11:19:57;;;;;;;28.90;4.60;;;;;;;3.50;65.28;99088.16;106146;1271;22556;-74
2022/01/31 11:22:31;;;;;;;30.30;4.40;;;;;;;3.52;64.97;99087.45;106201;1270;22548;-75
2022/01/31 11:25:05;;;;;;;25.40;2.80;;;;;;;3.53;64.82;99086.68;106124;1271;25372;-74
2022/01/31 11:27:37;;;;;;;29.50;4.90;;;;;;;3.53;64.83;99085.95;106251;1268;22547;-75
2022/01/31 11:30:08;;;;;;;30.00;5.80;;;;;;;3.55;64.85;99088.23;106492;1268;22557;-75
2022/01/31 11:32:41;;;;;;;33.00;4.60;;;;;;;3.57;64.83;99086.66;106550;1268;22731;-74
2022/01/31 11:35:10;;;;;;;26.70;5.20;;;;;;;3.60;64.84;99085.27;106560;1268;24143;-75
2022/01/31 11:37:39;;;;;;;29.50;3.80;;;;;;;3.62;64.69;99078.55;106439;1267;22535;-75
2022/01/31 11:40:11;;;;;;;27.60;4.50;;;;;;;3.65;64.48;99074.42;106515;1267;22489;-74
2022/01/31 11:42:42;;;;;;;29.80;4.80;;;;;;;3.67;64.65;99064.70;106554;1267;22595;-74
2022/01/31 11:45:15;;;;;;;27.40;4.80;;;;;;;3.70;64.53;99072.61;106551;1267;25598;-76
2022/01/31 11:47:45;;;;;;;20.90;4.00;;;;;;;3.72;64.45;99071.23;106592;1268;23383;-74